createdAt,value
2017-05-21T00:01:32.617Z,54.60
2017-05-21T00:04:01.611Z,54.80
2017-05-21T00:06:30.546Z,55.00
2017-05-21T00:08:59.438Z,54.90
2017-05-21T00:11:28.351Z,55.00
2017-05-21T00:13:57.290Z,55.00
2017-05-21T00:16:26.200Z,54.70
2017-05-21T00:18:55.102Z,54.80
2017-05-21T00:21:24.023Z,54.70
2017-05-21T00:23:52.938Z,55.50
2017-05-21T00:26:21.839Z,54.70
2017-05-21T00:28:50.863Z,55.40
2017-05-21T00:31:19.767Z,54.90
2017-05-21T00:33:48.677Z,54.80
2017-05-21T00:36:17.626Z,54.90
2017-05-21T00:38:46.534Z,54.40
2017-05-21T00:41:15.436Z,54.00
2017-05-21T00:43:44.391Z,55.20
2017-05-21T00:46:13.290Z,55.00
2017-05-21T00:48:42.195Z,54.70
2017-05-21T00:51:11.126Z,55.00
2017-05-21T00:53:40.067Z,54.60
2017-05-21T00:56:08.982Z,55.00
2017-05-21T00:58:37.914Z,55.20
2017-05-21T01:01:06.826Z,55.60
2017-05-21T01:03:35.750Z,55.20
2017-05-21T01:06:04.681Z,55.40
2017-05-21T01:08:33.590Z,55.20
2017-05-21T01:11:02.515Z,55.50
2017-05-21T01:13:31.438Z,56.00
2017-05-21T01:16:00.365Z,56.20
2017-05-21T01:18:29.299Z,56.20
2017-05-21T01:20:58.210Z,55.40
2017-05-21T01:23:27.136Z,55.70
2017-05-21T01:25:56.098Z,55.40
2017-05-21T01:28:25.035Z,55.40
2017-05-21T01:30:53.943Z,55.60
2017-05-21T01:33:22.844Z,56.00
2017-05-21T01:35:51.784Z,55.70
2017-05-21T01:38:20.678Z,55.90
2017-05-21T01:40:49.614Z,56.10
2017-05-21T01:43:18.551Z,56.00
2017-05-21T01:45:47.466Z,56.10
2017-05-21T01:48:16.390Z,56.30
2017-05-21T01:50:45.353Z,56.10
2017-05-21T01:53:14.285Z,56.20
2017-05-21T01:55:43.323Z,56.10
2017-05-21T01:58:12.266Z,56.00
2017-05-21T02:00:41.197Z,55.80
2017-05-21T02:03:10.118Z,55.60
2017-05-21T02:05:39.359Z,55.60
2017-05-21T02:08:08.255Z,55.50
2017-05-21T02:10:37.170Z,55.20
2017-05-21T02:13:06.201Z,55.20
2017-05-21T02:15:35.108Z,55.00
2017-05-21T02:18:04.011Z,55.00
2017-05-21T02:20:32.935Z,55.10
2017-05-21T02:23:01.836Z,55.00
2017-05-21T02:25:30.766Z,55.00
2017-05-21T02:27:59.822Z,55.30
2017-05-21T02:30:28.735Z,55.20
2017-05-21T02:32:57.643Z,55.20
2017-05-21T02:35:26.581Z,55.20
2017-05-21T02:37:55.489Z,55.80
2017-05-21T02:40:24.395Z,55.20
2017-05-21T02:42:53.353Z,55.30
2017-05-21T02:45:22.266Z,55.30
2017-05-21T02:47:51.179Z,55.90
2017-05-21T02:50:20.115Z,56.90
2017-05-21T02:52:49.027Z,56.30
2017-05-21T02:55:18.098Z,56.40
2017-05-21T02:57:47.046Z,56.70
2017-05-21T03:00:15.949Z,56.70
2017-05-21T03:02:45.508Z,56.80
2017-05-21T03:05:14.447Z,56.80
2017-05-21T03:07:43.400Z,57.00
2017-05-21T03:10:12.305Z,57.20
2017-05-21T03:12:41.311Z,57.50
2017-05-21T03:15:10.212Z,57.40
2017-05-21T03:17:39.126Z,57.50
2017-05-21T03:20:08.128Z,57.00
2017-05-21T03:22:37.042Z,56.70
2017-05-21T03:25:05.953Z,56.40
2017-05-21T03:27:34.909Z,56.30
2017-05-21T03:30:03.811Z,57.00
2017-05-21T03:32:32.716Z,56.50
2017-05-21T03:35:01.709Z,56.30
2017-05-21T03:37:30.574Z,56.50
2017-05-21T03:39:59.477Z,56.30
2017-05-21T03:42:28.417Z,56.20
2017-05-21T03:44:57.336Z,56.10
2017-05-21T03:47:26.249Z,55.90
2017-05-21T03:49:55.181Z,55.70
2017-05-21T03:52:24.102Z,55.90
2017-05-21T03:54:53.000Z,55.80
2017-05-21T03:57:21.165Z,55.80
2017-05-21T03:59:50.086Z,55.80
2017-05-21T04:02:19.013Z,56.30
2017-05-21T04:04:47.924Z,56.10
2017-05-21T04:07:16.830Z,56.00
2017-05-21T04:09:45.790Z,56.10
2017-05-21T04:12:14.699Z,56.00
2017-05-21T04:14:43.635Z,56.30
2017-05-21T04:17:12.569Z,56.80
2017-05-21T04:19:41.508Z,56.60
2017-05-21T04:22:10.413Z,56.60
2017-05-21T04:24:39.354Z,56.60
2017-05-21T04:27:08.314Z,56.60
2017-05-21T04:29:37.206Z,56.40
2017-05-21T04:32:06.137Z,56.40
2017-05-21T04:34:35.069Z,56.20
2017-05-21T04:37:03.988Z,56.30
2017-05-21T04:39:32.920Z,56.20
2017-05-21T04:42:02.011Z,56.70
2017-05-21T04:44:30.958Z,57.10
2017-05-21T04:46:59.876Z,57.10
2017-05-21T04:49:28.809Z,57.10
2017-05-21T04:51:57.729Z,56.60
2017-05-21T04:54:26.643Z,56.40
2017-05-21T04:56:55.575Z,56.50
2017-05-21T04:59:25.361Z,56.50
2017-05-21T05:01:54.314Z,56.30
2017-05-21T05:04:23.242Z,56.30
2017-05-21T05:06:52.269Z,56.30
2017-05-21T05:09:21.769Z,56.10
2017-05-21T05:11:50.792Z,55.80
2017-05-21T05:14:19.687Z,55.80
2017-05-21T05:16:48.604Z,56.00
2017-05-21T05:19:17.530Z,56.00
2017-05-21T05:21:46.461Z,56.10
2017-05-21T05:24:15.375Z,55.90
2017-05-21T05:26:44.346Z,55.50
2017-05-21T05:29:13.295Z,55.40
2017-05-21T05:31:42.191Z,55.40
2017-05-21T05:34:11.120Z,55.20
2017-05-21T05:36:40.030Z,54.70
2017-05-21T05:39:08.931Z,54.70
2017-05-21T05:41:37.855Z,55.50
2017-05-21T05:44:06.765Z,54.70
2017-05-21T05:46:35.669Z,54.40
2017-05-21T05:49:04.611Z,54.10
2017-05-21T05:51:33.514Z,55.00
2017-05-21T05:54:02.471Z,54.60
2017-05-21T05:56:31.390Z,54.70
2017-05-21T05:59:00.290Z,55.10
2017-05-21T06:01:29.224Z,54.40
2017-05-21T06:03:58.171Z,54.70
2017-05-21T06:06:27.074Z,54.90
2017-05-21T06:08:56.011Z,55.40
2017-05-21T06:11:24.934Z,54.80
2017-05-21T06:13:53.851Z,54.10
2017-05-21T06:16:22.762Z,54.10
2017-05-21T06:18:51.814Z,54.30
2017-05-21T06:21:20.747Z,54.20
2017-05-21T06:23:49.684Z,54.10
2017-05-21T06:26:19.082Z,54.10
2017-05-21T06:28:48.008Z,53.90
2017-05-21T06:31:16.922Z,53.30
2017-05-21T06:33:46.395Z,53.30
2017-05-21T06:36:15.317Z,53.60
2017-05-21T06:38:44.227Z,53.30
2017-05-21T06:41:13.154Z,54.40
2017-05-21T06:43:42.075Z,53.50
2017-05-21T06:46:10.990Z,52.60
2017-05-21T06:48:40.027Z,52.70
2017-05-21T06:51:08.920Z,52.00
2017-05-21T06:53:37.834Z,53.40
2017-05-21T06:56:06.766Z,54.50
2017-05-21T06:58:35.671Z,53.60
2017-05-21T07:01:04.581Z,52.70
2017-05-21T07:03:33.525Z,52.80
2017-05-21T07:06:02.438Z,53.50
2017-05-21T07:08:31.470Z,53.40
2017-05-21T07:11:00.411Z,53.40
2017-05-21T07:13:29.490Z,53.20
2017-05-21T07:15:58.385Z,52.70
2017-05-21T07:18:27.316Z,50.50
2017-05-21T07:20:56.237Z,50.10
2017-05-21T07:23:25.140Z,49.40
2017-05-21T07:25:54.099Z,49.20
2017-05-21T07:28:23.012Z,49.00
2017-05-21T07:30:51.931Z,48.60
2017-05-21T07:33:20.901Z,48.90
2017-05-21T07:35:49.840Z,49.20
2017-05-21T07:38:18.743Z,49.90
2017-05-21T07:40:47.671Z,48.60
2017-05-21T07:43:16.598Z,48.00
2017-05-21T07:45:45.500Z,48.80
2017-05-21T07:48:14.443Z,49.70
2017-05-21T07:50:43.950Z,49.10
2017-05-21T07:53:12.898Z,46.90
2017-05-21T07:55:41.823Z,46.80
2017-05-21T07:58:10.719Z,46.30
2017-05-21T08:00:39.634Z,45.70
2017-05-21T08:03:08.615Z,45.80
2017-05-21T08:05:37.537Z,45.30
2017-05-21T08:08:06.444Z,45.80
2017-05-21T08:10:34.613Z,45.90
2017-05-21T08:13:03.566Z,43.60
2017-05-21T08:15:32.481Z,42.50
2017-05-21T08:18:01.398Z,41.90
2017-05-21T08:20:30.334Z,39.70
2017-05-21T08:22:59.380Z,39.80
2017-05-21T08:25:28.323Z,38.90
2017-05-21T08:27:57.218Z,39.10
2017-05-21T08:30:26.125Z,38.40
2017-05-21T08:32:55.067Z,38.70
2017-05-21T08:35:23.991Z,38.80
2017-05-21T08:37:52.908Z,36.90
2017-05-21T08:40:21.835Z,36.30
2017-05-21T08:42:50.775Z,36.20
2017-05-21T08:45:19.712Z,35.70
2017-05-21T08:47:48.654Z,35.80
2017-05-21T08:50:17.629Z,35.40
2017-05-21T08:52:46.889Z,35.40
2017-05-21T08:55:18.529Z,34.00
2017-05-21T08:57:47.856Z,33.90
2017-05-21T09:00:17.065Z,33.00
2017-05-21T09:02:46.389Z,32.10
2017-05-21T09:05:15.673Z,31.70
2017-05-21T09:07:44.958Z,30.90
2017-05-21T09:10:15.205Z,29.40
2017-05-21T09:12:44.506Z,29.10
2017-05-21T09:15:14.187Z,29.30
2017-05-21T09:17:43.886Z,28.80
2017-05-21T09:20:12.826Z,26.20
2017-05-21T09:22:41.860Z,23.70
2017-05-21T09:25:10.768Z,23.60
2017-05-21T09:27:39.698Z,22.80
2017-05-21T09:30:08.609Z,23.50
2017-05-21T09:32:37.585Z,24.50
2017-05-21T09:35:06.493Z,25.40
2017-05-21T09:37:35.396Z,25.80
2017-05-21T09:40:04.339Z,28.00
2017-05-21T09:42:33.243Z,29.30
2017-05-21T09:45:02.158Z,31.00
2017-05-21T09:47:31.117Z,30.70
2017-05-21T09:50:00.025Z,24.70
2017-05-21T09:52:28.938Z,22.60
2017-05-21T09:54:57.945Z,20.10
2017-05-21T09:57:27.383Z,17.90
2017-05-21T09:59:56.291Z,17.90
2017-05-21T10:02:25.274Z,18.60
2017-05-21T10:04:54.223Z,19.30
2017-05-21T10:07:23.119Z,20.80
2017-05-21T10:09:52.155Z,22.10
2017-05-21T10:12:21.567Z,21.90
2017-05-21T10:14:50.485Z,20.90
2017-05-21T10:17:19.402Z,21.40
2017-05-21T10:19:48.324Z,21.90
2017-05-21T10:22:17.199Z,23.00
2017-05-21T10:24:46.120Z,23.60
2017-05-21T10:27:15.073Z,23.50
2017-05-21T10:29:44.477Z,22.20
2017-05-21T10:32:13.448Z,20.40
2017-05-21T10:34:42.372Z,20.50
2017-05-21T10:37:11.286Z,20.10
2017-05-21T10:39:40.222Z,18.10
2017-05-21T10:42:09.273Z,17.60
2017-05-21T10:44:38.159Z,17.40
2017-05-21T10:47:07.219Z,18.40
2017-05-21T10:49:36.243Z,18.80
2017-05-21T10:52:05.284Z,18.30
2017-05-21T10:54:34.331Z,18.90
2017-05-21T10:57:03.511Z,20.70
2017-05-21T10:59:32.386Z,22.40
2017-05-21T11:02:01.368Z,22.00
2017-05-21T11:04:30.296Z,20.10
2017-05-21T11:06:59.206Z,18.10
2017-05-21T11:09:28.170Z,18.10
2017-05-21T11:11:57.076Z,17.40
2017-05-21T11:14:26.031Z,16.60
2017-05-21T11:16:54.978Z,16.10
2017-05-21T11:19:23.908Z,16.30
2017-05-21T11:21:52.839Z,16.90
2017-05-21T11:24:21.783Z,16.60
2017-05-21T11:26:50.699Z,15.80
2017-05-21T11:29:19.606Z,15.20
2017-05-21T11:31:48.604Z,14.30
2017-05-21T11:34:17.543Z,14.10
2017-05-21T11:36:46.598Z,14.60
2017-05-21T11:39:15.535Z,14.90
2017-05-21T11:41:44.614Z,16.30
2017-05-21T11:44:13.510Z,17.10
2017-05-21T11:46:42.473Z,16.70
2017-05-21T11:49:11.610Z,16.30
2017-05-21T11:51:40.513Z,17.30
2017-05-21T11:54:09.511Z,17.20
2017-05-21T11:56:38.398Z,15.80
2017-05-21T11:59:07.328Z,15.20
2017-05-21T12:01:36.357Z,15.00
2017-05-21T12:04:05.409Z,14.30
2017-05-21T12:06:34.295Z,15.30
2017-05-21T12:09:03.237Z,16.00
2017-05-21T12:11:32.154Z,16.90
2017-05-21T12:14:01.089Z,17.30
2017-05-21T12:16:30.073Z,17.10
2017-05-21T12:18:59.527Z,17.90
2017-05-21T12:21:28.430Z,18.30
2017-05-21T12:23:58.021Z,19.40
2017-05-21T12:26:26.962Z,20.40
2017-05-21T12:28:56.977Z,21.10
2017-05-21T12:31:25.898Z,21.50
2017-05-21T12:33:54.827Z,22.60
2017-05-21T12:36:23.768Z,22.10
2017-05-21T12:38:52.696Z,23.50
2017-05-21T12:41:21.647Z,24.60
2017-05-21T12:43:50.541Z,24.70
2017-05-21T12:46:19.486Z,25.50
2017-05-21T12:48:48.404Z,26.50
2017-05-21T12:51:18.029Z,26.20
2017-05-21T12:53:46.979Z,27.70
2017-05-21T12:56:15.913Z,27.60
2017-05-21T12:58:44.962Z,27.80
2017-05-21T13:01:13.910Z,28.10
2017-05-21T13:03:42.827Z,28.20
2017-05-21T13:06:11.815Z,27.30
2017-05-21T13:08:40.777Z,27.80
2017-05-21T13:11:09.653Z,26.50
2017-05-21T13:13:39.292Z,26.20
2017-05-21T13:16:08.249Z,26.70
2017-05-21T13:18:37.162Z,26.10
2017-05-21T13:21:06.827Z,26.70
2017-05-21T13:23:35.799Z,26.80
2017-05-21T13:26:04.711Z,26.20
2017-05-21T13:28:34.011Z,26.00
2017-05-21T13:31:02.977Z,25.80
2017-05-21T13:33:31.912Z,25.60
2017-05-21T13:36:00.818Z,25.40
2017-05-21T13:38:29.798Z,24.70
2017-05-21T13:40:58.701Z,25.40
2017-05-21T13:43:27.625Z,25.10
2017-05-21T13:45:56.566Z,25.50
2017-05-21T13:48:25.484Z,25.40
2017-05-21T13:50:54.396Z,25.90
2017-05-21T13:53:23.340Z,25.30
2017-05-21T13:55:52.937Z,26.50
2017-05-21T13:58:21.859Z,26.20
2017-05-21T14:00:50.830Z,27.10
2017-05-21T14:03:19.764Z,27.10
2017-05-21T14:05:48.669Z,26.80
2017-05-21T14:08:17.622Z,26.00
2017-05-21T14:10:46.541Z,26.00
2017-05-21T14:13:15.465Z,25.80
2017-05-21T14:15:44.422Z,25.80
2017-05-21T14:18:13.327Z,25.20
2017-05-21T14:20:42.255Z,26.10
2017-05-21T14:23:11.193Z,25.60
2017-05-21T14:25:40.194Z,27.10
2017-05-21T14:28:09.262Z,26.70
2017-05-21T14:30:38.307Z,26.30
2017-05-21T14:33:07.222Z,26.90
2017-05-21T14:35:36.159Z,27.30
2017-05-21T14:38:05.109Z,28.30
2017-05-21T14:40:34.052Z,28.10
2017-05-21T14:43:02.979Z,27.90
2017-05-21T14:45:31.946Z,28.20
2017-05-21T14:48:00.823Z,27.60
2017-05-21T14:50:29.738Z,28.80
2017-05-21T14:52:58.710Z,28.10
2017-05-21T14:55:27.594Z,28.50
2017-05-21T14:57:56.505Z,28.80
2017-05-21T15:00:25.974Z,28.80
2017-05-21T15:02:54.883Z,28.30
2017-05-21T15:05:23.901Z,28.50
2017-05-21T15:07:52.802Z,27.70
2017-05-21T15:10:21.779Z,28.30
2017-05-21T15:12:50.690Z,28.70
2017-05-21T15:15:19.613Z,27.70
2017-05-21T15:17:48.523Z,27.90
2017-05-21T15:20:17.493Z,28.20
2017-05-21T15:22:46.460Z,28.10
2017-05-21T15:25:15.359Z,27.40
2017-05-21T15:27:44.275Z,27.30
2017-05-21T15:30:13.237Z,28.00
2017-05-21T15:32:42.195Z,28.00
2017-05-21T15:35:11.151Z,28.30
2017-05-21T15:37:40.139Z,28.00
2017-05-21T15:40:09.082Z,27.90
2017-05-21T15:42:38.068Z,28.50
2017-05-21T15:45:07.017Z,28.30
2017-05-21T15:47:36.582Z,28.70
2017-05-21T15:50:05.554Z,28.70
2017-05-21T15:52:34.469Z,29.40
2017-05-21T15:55:03.465Z,29.40
2017-05-21T15:57:32.930Z,29.30
2017-05-21T16:00:01.883Z,29.70
2017-05-21T16:02:30.826Z,29.60
2017-05-21T16:04:59.781Z,29.90
2017-05-21T16:07:28.731Z,30.10
2017-05-21T16:09:58.126Z,29.60
2017-05-21T16:12:28.027Z,30.00
2017-05-21T16:14:56.926Z,30.40
2017-05-21T16:17:25.968Z,30.00
2017-05-21T16:19:54.915Z,30.00
2017-05-21T16:22:23.854Z,30.00
2017-05-21T16:24:52.788Z,29.30
2017-05-21T16:27:21.735Z,29.90
2017-05-21T16:29:50.631Z,31.50
2017-05-21T16:32:19.557Z,31.50
2017-05-21T16:34:48.554Z,31.40
2017-05-21T16:37:17.481Z,31.20
2017-05-21T16:39:46.438Z,31.70
2017-05-21T16:42:16.156Z,32.10
2017-05-21T16:44:45.026Z,32.50
2017-05-21T16:47:13.929Z,32.00
2017-05-21T16:49:42.888Z,32.40
2017-05-21T16:52:11.798Z,33.40
2017-05-21T16:54:41.506Z,32.50
2017-05-21T16:57:10.428Z,32.80
2017-05-21T16:59:39.353Z,33.10
2017-05-21T17:02:08.271Z,33.40
2017-05-21T17:04:37.223Z,33.00
2017-05-21T17:07:06.980Z,33.80
2017-05-21T17:09:35.916Z,33.70
2017-05-21T17:12:05.782Z,34.00
2017-05-21T17:14:34.717Z,33.60
2017-05-21T17:17:03.633Z,34.30
2017-05-21T17:19:32.575Z,34.50
2017-05-21T17:22:01.491Z,34.40
2017-05-21T17:24:30.403Z,34.00
2017-05-21T17:26:59.382Z,34.10
2017-05-21T17:29:28.314Z,34.50
2017-05-21T17:31:57.275Z,34.20
2017-05-21T17:34:26.200Z,34.30
2017-05-21T17:36:55.132Z,35.00
2017-05-21T17:39:24.045Z,34.80
2017-05-21T17:41:52.991Z,34.40
2017-05-21T17:44:21.922Z,34.90
2017-05-21T17:46:51.630Z,35.20
2017-05-21T17:49:20.577Z,35.00
2017-05-21T17:51:49.462Z,35.30
2017-05-21T17:54:18.366Z,35.70
2017-05-21T17:56:47.509Z,35.90
2017-05-21T17:59:16.421Z,35.50
2017-05-21T18:01:46.095Z,36.30
2017-05-21T18:04:15.265Z,36.70
2017-05-21T18:06:44.238Z,36.30
2017-05-21T18:09:13.111Z,35.50
2017-05-21T18:11:42.126Z,36.00
2017-05-21T18:14:11.047Z,36.30
2017-05-21T18:16:39.972Z,36.40
2017-05-21T18:19:09.038Z,36.60
2017-05-21T18:21:38.066Z,36.50
2017-05-21T18:24:07.082Z,36.80
2017-05-21T18:26:36.011Z,36.50
2017-05-21T18:29:04.937Z,37.00
2017-05-21T18:31:33.962Z,38.20
2017-05-21T18:34:02.906Z,38.40
2017-05-21T18:36:32.717Z,39.00
2017-05-21T18:39:01.603Z,39.40
2017-05-21T18:41:30.698Z,39.40
2017-05-21T18:44:00.251Z,39.70
2017-05-21T18:46:29.576Z,39.80
2017-05-21T18:48:58.634Z,39.90
2017-05-21T18:51:27.550Z,40.20
2017-05-21T18:53:56.548Z,40.00
2017-05-21T18:56:25.498Z,40.90
2017-05-21T18:58:54.425Z,41.00
2017-05-21T19:01:23.335Z,41.40
2017-05-21T19:03:52.292Z,41.80
2017-05-21T19:06:21.315Z,42.00
2017-05-21T19:08:50.231Z,42.00
2017-05-21T19:11:19.209Z,41.70
2017-05-21T19:13:48.107Z,41.70
2017-05-21T19:16:17.020Z,42.20
2017-05-21T19:18:46.268Z,42.40
2017-05-21T19:21:15.167Z,42.60
2017-05-21T19:23:44.062Z,42.90
2017-05-21T19:26:13.044Z,43.20
2017-05-21T19:28:41.952Z,43.20
2017-05-21T19:31:10.875Z,43.40
2017-05-21T19:33:40.471Z,43.90
2017-05-21T19:36:09.398Z,44.70
2017-05-21T19:38:38.902Z,45.00
2017-05-21T19:41:07.902Z,45.70
2017-05-21T19:43:36.837Z,45.90
2017-05-21T19:46:05.799Z,45.20
2017-05-21T19:48:35.043Z,45.00
2017-05-21T19:51:04.105Z,45.00
2017-05-21T19:53:33.035Z,45.30
2017-05-21T19:56:01.970Z,45.90
2017-05-21T19:58:30.883Z,46.40
2017-05-21T20:00:59.809Z,46.80
2017-05-21T20:03:29.257Z,47.10
2017-05-21T20:05:58.163Z,47.00
2017-05-21T20:08:27.076Z,46.50
2017-05-21T20:10:56.008Z,47.10
2017-05-21T20:13:24.921Z,46.90
2017-05-21T20:15:53.896Z,47.00
2017-05-21T20:18:22.827Z,47.40
2017-05-21T20:20:51.810Z,47.60
2017-05-21T20:23:20.715Z,48.00
2017-05-21T20:25:49.656Z,48.80
2017-05-21T20:28:18.697Z,49.10
2017-05-21T20:30:47.918Z,49.00
2017-05-21T20:33:16.827Z,48.90
2017-05-21T20:35:45.750Z,49.20
2017-05-21T20:38:14.670Z,49.40
2017-05-21T20:40:43.596Z,49.40
2017-05-21T20:43:12.513Z,49.60
2017-05-21T20:45:41.440Z,49.80
2017-05-21T20:48:10.547Z,50.20
2017-05-21T20:50:39.488Z,50.50
2017-05-21T20:53:08.503Z,51.50
2017-05-21T20:55:37.426Z,50.50
2017-05-21T20:58:06.343Z,50.40
2017-05-21T21:00:35.272Z,50.40
2017-05-21T21:03:04.977Z,50.60
2017-05-21T21:15:18.927Z,52.20
2017-05-21T21:17:47.827Z,51.90
2017-05-21T21:20:16.770Z,51.70
2017-05-21T21:22:45.720Z,51.60
2017-05-21T21:25:14.617Z,51.20
2017-05-21T21:27:43.535Z,51.40
2017-05-21T21:30:12.634Z,51.20
2017-05-21T21:32:41.602Z,50.40
2017-05-21T21:35:10.574Z,50.20
2017-05-21T21:37:39.490Z,50.10
2017-05-21T21:40:08.419Z,50.20
2017-05-21T21:42:37.319Z,49.90
2017-05-21T21:45:06.280Z,49.70
2017-05-21T21:47:35.184Z,49.70
2017-05-21T21:50:04.145Z,50.00
2017-05-21T21:52:33.099Z,49.60
2017-05-21T21:55:01.994Z,49.60
2017-05-21T21:57:30.902Z,49.70
2017-05-21T21:59:59.869Z,49.50
2017-05-21T22:02:28.790Z,49.40
2017-05-21T22:04:57.709Z,49.50
2017-05-21T22:07:26.654Z,49.20
2017-05-21T22:09:55.558Z,49.30
2017-05-21T22:12:24.580Z,49.70
2017-05-21T22:14:53.474Z,49.70
2017-05-21T22:17:22.411Z,49.80
2017-05-21T22:19:51.327Z,49.80
2017-05-21T22:22:20.238Z,49.50
2017-05-21T22:24:49.174Z,49.40
2017-05-21T22:27:18.075Z,49.40
2017-05-21T22:29:47.379Z,49.10
2017-05-21T22:32:16.271Z,49.40
2017-05-21T22:34:45.263Z,50.20
2017-05-21T22:37:14.196Z,49.70
2017-05-21T22:39:43.127Z,49.80
2017-05-21T22:42:12.035Z,49.80
2017-05-21T22:44:40.999Z,50.10
2017-05-21T22:47:09.916Z,50.20
2017-05-21T22:49:38.847Z,50.70
2017-05-21T22:52:07.845Z,50.80
2017-05-21T22:54:36.775Z,50.80
2017-05-21T22:57:05.724Z,51.00
2017-05-21T22:59:34.671Z,50.90
2017-05-21T23:02:03.574Z,51.00
2017-05-21T23:04:32.980Z,50.90
2017-05-21T23:07:01.917Z,50.50
2017-05-21T23:09:30.846Z,50.70
2017-05-21T23:11:59.794Z,50.80
2017-05-21T23:14:28.742Z,50.90
2017-05-21T23:16:57.661Z,51.10
2017-05-21T23:19:26.577Z,51.30
2017-05-21T23:21:55.567Z,51.30
2017-05-21T23:24:24.479Z,51.20
2017-05-21T23:26:53.386Z,51.10
2017-05-21T23:29:22.384Z,50.90
2017-05-21T23:31:51.242Z,50.80
2017-05-21T23:34:20.154Z,50.80
2017-05-21T23:36:49.111Z,51.30
2017-05-21T23:39:17.994Z,51.30
2017-05-21T23:41:46.906Z,51.50
2017-05-21T23:44:15.829Z,51.20
2017-05-21T23:46:44.757Z,51.20
2017-05-21T23:49:13.704Z,51.30
2017-05-21T23:51:42.630Z,51.30
2017-05-21T23:54:11.539Z,51.30
2017-05-21T23:56:40.437Z,51.40
2017-05-21T23:59:09.374Z,51.20
